»·PEaware :: WAT234 KOXR-KSNA

WAT234 :: KOXR-KSNA

FLIGHT INFORMATION

Flight Status: Arrived
Operator:
Walker Air Transport
More flights by this operator :: More flights under this callsign
Pilot: Eduardo Elias G. (24838)
Aircraft: SOCATA TBM-900
(TBM9)
More flights by this aircraft type
Origin: KOXR Oxnard
United States
Destination: KSNA John Wayne-Orange Co
United States
More flights between these airports :: More routes between these airports
Route: VTU V208 SXC SLI
File this flight plan on PilotEdge
Remarks: Tec route VTUP9
Altitude:
(Current/Filed)
7,000ft
Speed:
(Current/Filed)
190kts
Departed: 20-Aug-20 09:02 PM
Arrived: 20-Aug-20 09:45 PM
Distance/Time
Traveled:
74nm/0:43
Distance/Time
To Go:
Arrived

Flight Plot

Page will automatically refresh every two minutes.


Map Options




Map Legend


Flown Route
Filed Route
Departure Airport
Arrival Airport
Navaid (VOR, NDB)
Fix

Horizontal Profiles

Position Reports

Time Latitude Longitude Heading Altitude Ground
Speed
20-Aug-20 20:41 34.199347 -119.215481 92 40ft 0kts
20-Aug-20 20:42 34.199347 -119.215481 92 40ft 0kts
20-Aug-20 20:43 34.199347 -119.215481 92 40ft 0kts
20-Aug-20 20:44 34.199347 -119.215481 92 40ft 0kts
20-Aug-20 20:45 34.199347 -119.215481 92 40ft 0kts
20-Aug-20 20:46 34.199347 -119.215481 92 40ft 0kts
20-Aug-20 20:47 34.199347 -119.215481 92 40ft 0kts
20-Aug-20 20:48 34.199347 -119.215481 92 40ft 0kts
20-Aug-20 20:49 34.199347 -119.215481 92 40ft 0kts
20-Aug-20 20:50 34.199347 -119.215481 92 40ft 0kts
20-Aug-20 20:51 34.199347 -119.215481 92 40ft 0kts
20-Aug-20 20:51 34.199347 -119.215481 92 40ft 0kts
20-Aug-20 20:53 34.199347 -119.215481 92 40ft 0kts
20-Aug-20 20:54 34.199836 -119.211707 91 40ft 25kts
20-Aug-20 20:54 34.199793 -119.205159 90 40ft 16kts
20-Aug-20 20:56 34.199725 -119.198098 88 40ft 11kts
20-Aug-20 20:57 34.199818 -119.197631 41 40ft 0kts
20-Aug-20 20:57 34.199818 -119.197631 41 40ft 0kts
20-Aug-20 20:58 34.199818 -119.197631 41 40ft 0kts
20-Aug-20 20:59 34.199818 -119.197631 41 40ft 0kts
20-Aug-20 21:00 34.199836 -119.197608 42 40ft 2kts
20-Aug-20 21:01 34.200998 -119.212108 270 533ft 100kts
20-Aug-20 21:02 34.200901 -119.252032 266 2469ft 121kts
20-Aug-20 21:03 34.200936 -119.289978 267 4383ft 125kts
20-Aug-20 21:04 34.172898 -119.313475 138 5750ft 189kts
20-Aug-20 21:05 34.155538 -119.249508 101 6996ft 197kts
20-Aug-20 21:06 34.139965 -119.172057 102 7006ft 256kts
20-Aug-20 21:07 34.121446 -119.080867 102 7001ft 271kts
20-Aug-20 21:08 34.057573 -119.043515 176 7003ft 267kts
20-Aug-20 21:09 33.979246 -119.035266 176 6991ft 268kts
20-Aug-20 21:10 33.899779 -119.026908 176 6993ft 268kts
20-Aug-20 21:11 33.821505 -119.018720 176 6991ft 268kts
20-Aug-20 21:12 33.759184 -118.969761 129 6998ft 270kts
20-Aug-20 21:13 33.709274 -118.897805 129 7015ft 270kts
20-Aug-20 21:14 33.657545 -118.823415 129 7047ft 270kts
20-Aug-20 21:15 33.607104 -118.751043 129 7077ft 271kts
20-Aug-20 21:16 33.556019 -118.677883 129 7000ft 273kts
20-Aug-20 21:17 33.504940 -118.604874 129 7065ft 270kts
20-Aug-20 21:18 33.454250 -118.532580 129 6997ft 273kts
20-Aug-20 21:19 33.403761 -118.460715 129 7001ft 272kts
20-Aug-20 21:20 33.411627 -118.385536 34 7010ft 256kts
20-Aug-20 21:21 33.472246 -118.331025 33 6995ft 257kts
20-Aug-20 21:22 33.531684 -118.278428 33 6984ft 257kts
20-Aug-20 21:23 33.590592 -118.226196 33 5829ft 243kts
20-Aug-20 21:24 33.647351 -118.175865 34 4971ft 236kts
20-Aug-20 21:25 33.699638 -118.129334 33 4968ft 217kts
20-Aug-20 21:26 33.749693 -118.084732 33 4973ft 213kts
20-Aug-20 21:27 33.792217 -118.033206 62 4969ft 217kts
20-Aug-20 21:28 33.819319 -117.965313 61 4948ft 218kts
20-Aug-20 21:29 33.846713 -117.897118 61 4931ft 218kts
20-Aug-20 21:30 33.874535 -117.827793 62 4429ft 226kts
20-Aug-20 21:31 33.902337 -117.758264 63 3909ft 208kts
20-Aug-20 21:32 33.932583 -117.701129 26 3918ft 187kts
20-Aug-20 21:33 33.982384 -117.669675 26 3513ft 193kts
20-Aug-20 21:34 34.022422 -117.678809 261 3476ft 177kts
20-Aug-20 21:35 33.979224 -117.701474 190 3503ft 174kts
20-Aug-20 21:36 33.928632 -117.711927 189 3508ft 174kts
20-Aug-20 21:37 33.882836 -117.737113 208 3434ft 175kts
20-Aug-20 21:38 33.837956 -117.765887 207 3087ft 187kts
20-Aug-20 21:39 33.794840 -117.793337 206 2484ft 142kts
20-Aug-20 21:40 33.754746 -117.818743 207 1737ft 126kts
20-Aug-20 21:41 33.728179 -117.835565 205 1112ft 98kts
20-Aug-20 21:42 33.702939 -117.851454 206 600ft 97kts
20-Aug-20 21:43 33.678964 -117.866743 206 68ft 78kts
20-Aug-20 21:44 33.669354 -117.871861 141 59ft 13kts
20-Aug-20 21:45 33.669052 -117.871468 134 59ft 1kts
20-Aug-20 21:46 33.667738 -117.872324 217 59ft 3kts
20-Aug-20 21:47 33.666919 -117.872137 276 59ft 4kts
20-Aug-20 21:48 33.666923 -117.872158 289 59ft 0kts
20-Aug-20 21:49 33.666923 -117.872158 289 59ft 0kts
20-Aug-20 21:50 33.666923 -117.872158 289 59ft 0kts
20-Aug-20 21:51 33.666923 -117.872158 289 59ft 0kts

Navigation Log

Ident Type
Flight plan parsing failed, navigation log unavailable